CheckWX is a tool to help pilots better visualize weather data.  It is not intended as a substitute for an official pre-flight weather briefing.

08:21:52 UTC

KHDO METAR
South Texas Regional at Hondo Airport
Hondo, Texas, USA
Current

31 mins ago

KHDO 220751Z AUTO 09010KT 10SM OVC011 13/09 A2990 RMK AO2 SLP116 T01330094
Observed
Feb-22 @ 07:51 UTC
Wind
  • 090° at 10 KTS
Visibility
10 SM
Flight Rules
MVFR
Cloud Levels
  • Overcast at 1,100' AGL
Temperature
13°C / 55°F
Dewpoint
C / 48°F
Humidity
77%
Altimeter
29.9" Hg
Pressure
1011.6 hPa
Previous

2 hours ago

KHDO 220651Z AUTO 07010KT 10SM OVC011 13/09 A2991 RMK AO2 SLP120 T01330089
Observed
Feb-22 @ 06:51 UTC
Wind
  • 070° at 10 KTS
Visibility
10 SM
Flight Rules
MVFR
Cloud Levels
  • Overcast at 1,100' AGL
Temperature
13°C / 55°F
Dewpoint
C / 48°F
Humidity
77%
Altimeter
29.91" Hg
Pressure
1012 hPa
Previous

2 hours ago

KHDO 220607Z AUTO 05008KT 10SM BKN014 OVC019 13/09 A2992 RMK AO2 T01330089
Observed
Feb-22 @ 06:07 UTC
Wind
  • 050° at 8 KTS
Visibility
10 SM
Flight Rules
MVFR
Cloud Levels
  • Broken at 1,400' AGL
  • Overcast at 1,900' AGL
Temperature
13°C / 55°F
Dewpoint
C / 48°F
Humidity
77%
Altimeter
29.92" Hg
Pressure
1013.22 hPa